Time;durP1;ratioP1;P1;durP2;ratioP2;P2;SDS_P1;SDS_P2;PMS_P1;PMS_P2;Temp;Humidity;BMP_temperature;BMP_pressure;BME280_temperature;BME280_humidity;BME280_pressure;Samples;Min_cycle;Max_cycle;Signal;HPM_P1;HPM_P2
2021/07/29 00:02:26;;;;;;;9.90;5.50;;;18.70;97.30;;;;;;5025440;28;20186;-87
2021/07/29 00:04:52;;;;;;;9.87;5.80;;;18.60;97.30;;;;;;5027493;28;20305;-87
2021/07/29 00:07:17;;;;;;;11.13;6.27;;;18.60;97.30;;;;;;5022849;28;20950;-87
2021/07/29 00:09:46;;;;;;;10.70;5.80;;;18.60;97.30;;;;;;5012422;28;20185;-87
2021/07/29 00:12:12;;;;;;;9.73;5.57;;;18.60;97.30;;;;;;5011920;28;20189;-87
2021/07/29 00:14:38;;;;;;;16.10;5.80;;;18.60;97.30;;;;;;5011298;28;20432;-87
2021/07/29 00:17:06;;;;;;;7.47;5.40;;;18.60;97.30;;;;;;5017228;28;20181;-86
2021/07/29 00:19:31;;;;;;;9.70;5.90;;;18.60;97.30;;;;;;5016165;28;20189;-87
2021/07/29 00:21:57;;;;;;;8.00;5.27;;;18.60;97.30;;;;;;5016348;28;20424;-86
2021/07/29 00:24:25;;;;;;;7.57;5.90;;;18.60;97.30;;;;;;5018261;28;20246;-87
2021/07/29 00:26:51;;;;;;;6.87;5.43;;;18.60;97.30;;;;;;5030791;28;20219;-86
2021/07/29 00:29:17;;;;;;;8.37;5.47;;;18.60;97.30;;;;;;5015346;28;20950;-87
2021/07/29 00:31:42;;;;;;;9.27;6.53;;;18.60;97.30;;;;;;5035313;28;20172;-86
2021/07/29 00:34:08;;;;;;;10.43;5.90;;;18.60;97.30;;;;;;5031426;28;20258;-87
2021/07/29 00:36:35;;;;;;;7.67;5.07;;;18.60;97.30;;;;;;5021521;28;20196;-87
2021/07/29 00:39:02;;;;;;;8.53;6.03;;;18.50;97.30;;;;;;5034415;28;20173;-87
2021/07/29 00:41:28;;;;;;;9.83;5.60;;;18.50;97.30;;;;;;5021265;28;20477;-87
2021/07/29 00:44:04;;;;;;;9.67;5.23;;;18.50;97.30;;;;;;5035104;28;20427;-87
2021/07/29 00:46:33;;;;;;;7.13;5.37;;;18.50;97.30;;;;;;5027261;28;20647;-87
2021/07/29 00:49:00;;;;;;;10.40;5.47;;;18.50;97.30;;;;;;5014496;28;20428;-87
2021/07/29 00:51:27;;;;;;;8.53;6.07;;;18.40;97.30;;;;;;5017581;28;20953;-87
2021/07/29 00:53:53;;;;;;;7.60;4.97;;;18.40;97.30;;;;;;5027116;28;20452;-87
2021/07/29 00:56:18;;;;;;;12.80;5.87;;;18.40;97.30;;;;;;5016948;28;20529;-88
2021/07/29 00:58:44;;;;;;;8.03;5.73;;;18.30;97.30;;;;;;5034120;28;20427;-88
2021/07/29 01:01:10;;;;;;;9.50;6.10;;;18.30;97.30;;;;;;5026256;28;20193;-88
2021/07/29 01:03:35;;;;;;;10.80;5.90;;;18.20;97.30;;;;;;5027549;28;20223;-88
2021/07/29 01:06:04;;;;;;;10.90;6.27;;;18.20;97.30;;;;;;5032131;28;20205;-88
2021/07/29 01:08:29;;;;;;;9.77;4.87;;;18.20;97.30;;;;;;5014422;28;20264;-88
2021/07/29 01:10:55;;;;;;;9.17;5.87;;;18.10;97.30;;;;;;5014863;28;21239;-88
2021/07/29 01:13:20;;;;;;;10.43;7.43;;;18.10;97.30;;;;;;5032193;28;20208;-88
2021/07/29 01:15:46;;;;;;;9.00;6.10;;;18.10;97.30;;;;;;5034438;28;20621;-87
2021/07/29 01:18:16;;;;;;;10.03;5.63;;;18.00;97.30;;;;;;5015908;28;20654;-87
2021/07/29 01:20:44;;;;;;;12.00;5.87;;;18.00;97.30;;;;;;5016736;28;20169;-88
2021/07/29 01:23:09;;;;;;;8.77;5.80;;;17.90;97.30;;;;;;5015618;28;20455;-87
2021/07/29 01:25:37;;;;;;;9.90;6.37;;;17.80;97.30;;;;;;5015646;28;20463;-88
2021/07/29 01:28:03;;;;;;;8.60;6.23;;;17.80;97.30;;;;;;5015364;28;20199;-88
2021/07/29 01:30:28;;;;;;;11.50;7.37;;;17.70;97.30;;;;;;5032210;28;20527;-89
2021/07/29 01:32:54;;;;;;;9.53;6.23;;;17.70;97.30;;;;;;5030518;28;20224;-88
2021/07/29 01:35:19;;;;;;;12.43;6.10;;;17.70;97.30;;;;;;5032577;28;20263;-88
2021/07/29 01:37:45;;;;;;;9.23;6.17;;;17.70;97.30;;;;;;5021095;28;20182;-88
2021/07/29 01:40:13;;;;;;;9.57;6.20;;;17.70;97.30;;;;;;5017332;28;20187;-87
2021/07/29 01:42:38;;;;;;;12.17;6.30;;;17.60;97.30;;;;;;5019253;28;20284;-87
2021/07/29 01:45:05;;;;;;;10.07;7.27;;;17.60;97.30;;;;;;5015381;28;20958;-87
2021/07/29 01:47:30;;;;;;;15.43;6.40;;;17.50;97.30;;;;;;5024013;28;20655;-87
2021/07/29 01:49:56;;;;;;;12.73;6.50;;;17.50;97.30;;;;;;5014295;28;20423;-87
2021/07/29 01:52:24;;;;;;;8.83;6.30;;;17.50;97.30;;;;;;5018450;28;20566;-87
2021/07/29 01:54:49;;;;;;;12.57;7.33;;;17.40;97.30;;;;;;5030690;28;20251;-88
2021/07/29 01:57:15;;;;;;;9.10;6.60;;;17.40;97.30;;;;;;5014775;28;20412;-87
2021/07/29 01:59:40;;;;;;;10.67;6.90;;;17.40;97.30;;;;;;5024546;28;20193;-87
2021/07/29 02:02:06;;;;;;;10.30;6.60;;;17.40;97.30;;;;;;5015091;28;20512;-88
2021/07/29 02:04:33;;;;;;;9.87;7.00;;;17.40;97.30;;;;;;5014211;28;20208;-88
2021/07/29 02:06:59;;;;;;;10.33;6.70;;;17.40;97.30;;;;;;5014255;28;20210;-88
2021/07/29 02:09:24;;;;;;;11.10;6.87;;;17.50;97.30;;;;;;5033504;28;20985;-88
2021/07/29 02:11:51;;;;;;;13.70;7.97;;;17.50;97.30;;;;;;5028670;28;20192;-87
2021/07/29 02:14:18;;;;;;;12.07;6.80;;;17.50;97.30;;;;;;5013214;28;20296;-88
2021/07/29 02:16:44;;;;;;;8.83;6.30;;;17.50;97.30;;;;;;5016922;28;20995;-87
2021/07/29 02:19:09;;;;;;;10.57;6.67;;;17.50;97.30;;;;;;5016280;28;20455;-87
2021/07/29 02:21:35;;;;;;;12.60;6.57;;;17.50;97.30;;;;;;5036191;28;20212;-89
2021/07/29 02:24:00;;;;;;;12.53;6.80;;;17.50;97.30;;;;;;5036097;28;20232;-88
2021/07/29 02:26:26;;;;;;;10.17;6.70;;;17.60;97.30;;;;;;5038541;28;20181;-88
2021/07/29 02:28:51;;;;;;;9.13;6.93;;;17.60;97.30;;;;;;5055745;28;20177;-88
2021/07/29 02:31:17;;;;;;;11.93;7.63;;;17.60;97.30;;;;;;5023766;28;20181;-88
2021/07/29 02:33:42;;;;;;;9.03;6.67;;;17.60;97.30;;;;;;5014388;28;20204;-88
2021/07/29 02:36:08;;;;;;;9.70;6.50;;;17.60;97.30;;;;;;5014797;28;20675;-88
2021/07/29 02:38:33;;;;;;;9.60;7.30;;;17.60;97.30;;;;;;5024212;28;20185;-88
2021/07/29 02:40:59;;;;;;;12.30;7.13;;;17.60;97.30;;;;;;5013569;28;20292;-87
2021/07/29 02:43:25;;;;;;;9.67;6.57;;;17.50;97.30;;;;;;5024309;28;20181;-88
2021/07/29 02:45:50;;;;;;;8.27;5.93;;;17.50;97.30;;;;;;5033140;28;20192;-88
2021/07/29 02:48:16;;;;;;;11.13;6.33;;;17.50;97.30;;;;;;5029482;28;20177;-88
2021/07/29 02:50:41;;;;;;;13.83;7.03;;;17.40;97.30;;;;;;5012840;28;20177;-88
2021/07/29 02:53:07;;;;;;;10.50;6.80;;;17.40;97.30;;;;;;5012628;28;20216;-88
2021/07/29 02:55:32;;;;;;;10.43;7.10;;;17.30;97.30;;;;;;5013073;28;20221;-88
2021/07/29 02:57:58;;;;;;;9.63;6.30;;;17.30;97.30;;;;;;5045406;28;20177;-87
2021/07/29 03:00:23;;;;;;;9.73;6.83;;;17.20;97.30;;;;;;5016645;28;20211;-88
2021/07/29 03:02:49;;;;;;;11.37;7.20;;;17.20;97.30;;;;;;5012615;28;20183;-88
2021/07/29 03:05:14;;;;;;;10.57;7.60;;;17.20;97.30;;;;;;5012573;28;20200;-88
2021/07/29 03:07:40;;;;;;;11.27;7.17;;;17.10;97.30;;;;;;5012522;28;20193;-87
2021/07/29 03:10:05;;;;;;;13.37;7.70;;;17.10;97.30;;;;;;5012593;28;20177;-88
2021/07/29 03:12:31;;;;;;;14.03;7.37;;;17.10;97.30;;;;;;5013342;28;20201;-88
2021/07/29 03:14:56;;;;;;;11.37;7.80;;;17.10;97.30;;;;;;5023545;28;20235;-88
2021/07/29 03:17:22;;;;;;;9.60;6.83;;;17.20;97.30;;;;;;5014031;28;20173;-88
2021/07/29 03:19:47;;;;;;;10.50;7.07;;;17.20;97.30;;;;;;5013436;28;20558;-87
2021/07/29 03:22:13;;;;;;;15.53;7.00;;;17.30;97.30;;;;;;5014415;28;20370;-88
2021/07/29 03:24:38;;;;;;;11.90;7.23;;;17.30;97.30;;;;;;5013085;28;20351;-88
2021/07/29 03:27:04;;;;;;;12.57;7.33;;;17.30;97.30;;;;;;5013887;28;20668;-88
2021/07/29 03:29:30;;;;;;;11.27;7.10;;;17.20;97.30;;;;;;5012260;28;20204;-88
2021/07/29 03:31:55;;;;;;;10.60;7.00;;;17.30;97.30;;;;;;5026672;28;20195;-88
2021/07/29 03:34:21;;;;;;;10.77;7.47;;;17.30;97.30;;;;;;5020181;28;20208;-88
2021/07/29 03:36:47;;;;;;;10.70;7.00;;;17.30;97.30;;;;;;5028512;28;20706;-87
2021/07/29 03:39:12;;;;;;;12.87;6.20;;;17.30;97.30;;;;;;5012830;28;20245;-88
2021/07/29 03:41:38;;;;;;;17.23;8.03;;;17.40;97.30;;;;;;5012201;28;20459;-88
2021/07/29 03:44:04;;;;;;;9.77;6.90;;;17.40;97.30;;;;;;5011886;28;20188;-88
2021/07/29 03:46:29;;;;;;;12.70;7.70;;;17.40;97.30;;;;;;5013206;28;20634;-88
2021/07/29 03:48:56;;;;;;;14.37;6.93;;;17.40;97.30;;;;;;5011615;28;20276;-88
2021/07/29 03:51:24;;;;;;;10.40;6.77;;;17.40;97.30;;;;;;5013639;28;20216;-88
2021/07/29 03:53:52;;;;;;;14.73;6.97;;;17.50;97.30;;;;;;5028693;28;20472;-88
2021/07/29 03:56:18;;;;;;;13.50;7.50;;;17.50;97.30;;;;;;5018724;28;20559;-88
2021/07/29 03:58:45;;;;;;;13.67;7.80;;;17.50;97.30;;;;;;5020345;28;20463;-88
2021/07/29 04:01:11;;;;;;;12.50;7.20;;;17.50;97.30;;;;;;5012888;28;20185;-88
2021/07/29 04:03:37;;;;;;;10.67;7.07;;;17.60;97.30;;;;;;5013136;28;20540;-88
2021/07/29 04:06:03;;;;;;;12.70;7.47;;;17.60;97.30;;;;;;5013451;28;20226;-88
2021/07/29 04:08:29;;;;;;;9.80;6.43;;;17.60;97.30;;;;;;5021351;28;20214;-88
2021/07/29 04:10:57;;;;;;;12.40;7.57;;;17.60;97.30;;;;;;5032293;28;20419;-87
2021/07/29 04:13:25;;;;;;;10.93;7.33;;;17.60;97.30;;;;;;5019636;28;20307;-88
2021/07/29 04:16:04;;;;;;;9.83;7.00;;;17.60;97.30;;;;;;5028097;28;20979;-88
2021/07/29 04:18:32;;;;;;;11.63;6.83;;;17.60;97.30;;;;;;5011716;28;20519;-87
2021/07/29 04:20:59;;;;;;;9.70;6.53;;;17.60;97.30;;;;;;5012232;28;20428;-88
2021/07/29 04:23:25;;;;;;;10.37;6.70;;;17.60;97.30;;;;;;5013417;28;20416;-88
2021/07/29 04:25:58;;;;;;;12.00;6.30;;;17.60;97.30;;;;;;5015896;28;20449;-88
2021/07/29 04:28:23;;;;;;;9.50;6.80;;;17.60;97.30;;;;;;5031542;28;20180;-87
2021/07/29 04:30:49;;;;;;;12.60;7.00;;;17.60;97.30;;;;;;5028413;28;20819;-88
2021/07/29 04:33:14;;;;;;;15.27;7.80;;;17.60;97.30;;;;;;5018501;28;20212;-88
2021/07/29 04:35:42;;;;;;;11.40;6.70;;;17.60;97.30;;;;;;5012643;28;20205;-87
2021/07/29 04:38:08;;;;;;;14.13;7.47;;;17.70;97.30;;;;;;5013264;28;20227;-88
2021/07/29 04:40:36;;;;;;;8.67;6.63;;;17.70;97.30;;;;;;5012831;28;20417;-87
2021/07/29 04:43:02;;;;;;;10.33;6.73;;;17.70;97.30;;;;;;5024823;28;20265;-88
2021/07/29 04:45:27;;;;;;;12.63;6.97;;;17.70;97.30;;;;;;5019560;28;20547;-87
2021/07/29 04:48:02;;;;;;;11.80;5.87;;;17.70;97.30;;;;;;5016306;28;20193;-88
2021/07/29 04:50:27;;;;;;;9.50;6.57;;;17.80;97.30;;;;;;5020332;28;20177;-87
2021/07/29 04:52:53;;;;;;;9.63;6.23;;;17.80;97.30;;;;;;5024361;28;20463;-87
2021/07/29 04:55:19;;;;;;;13.77;6.40;;;17.80;97.30;;;;;;5014176;28;20219;-88
2021/07/29 04:57:45;;;;;;;10.30;6.17;;;17.80;97.30;;;;;;5022980;28;20810;-88
2021/07/29 05:00:11;;;;;;;10.37;6.40;;;17.80;97.30;;;;;;5031025;28;20180;-88
2021/07/29 05:02:36;;;;;;;7.63;5.93;;;17.80;97.30;;;;;;5030537;28;20403;-87
2021/07/29 05:05:07;;;;;;;9.27;6.00;;;17.90;97.30;;;;;;5032084;28;20446;-87
2021/07/29 05:07:33;;;;;;;13.63;7.10;;;17.90;97.30;;;;;;5035005;28;20556;-87
2021/07/29 05:09:58;;;;;;;11.23;6.50;;;17.90;97.30;;;;;;5034678;28;20411;-87
2021/07/29 05:12:24;;;;;;;11.07;6.00;;;18.00;97.30;;;;;;5030310;28;20173;-88
2021/07/29 05:14:56;;;;;;;11.13;6.67;;;18.00;97.30;;;;;;5025298;28;20300;-87
2021/07/29 05:17:21;;;;;;;11.63;6.37;;;18.10;97.30;;;;;;5029216;28;20200;-87
2021/07/29 05:19:47;;;;;;;8.60;5.30;;;18.20;97.30;;;;;;5032230;28;20454;-87
2021/07/29 05:22:14;;;;;;;7.90;5.50;;;18.20;97.30;;;;;;5016467;28;20173;-87
2021/07/29 05:24:40;;;;;;;8.87;5.93;;;18.30;97.30;;;;;;5015876;28;20176;-87
2021/07/29 05:27:06;;;;;;;6.90;5.60;;;18.30;97.30;;;;;;5034363;28;20846;-87
2021/07/29 05:29:32;;;;;;;10.13;5.50;;;18.40;97.30;;;;;;5021132;28;20209;-86
2021/07/29 05:31:57;;;;;;;7.20;5.37;;;18.40;97.30;;;;;;5014619;28;20177;-87
2021/07/29 05:34:24;;;;;;;8.70;4.80;;;18.40;97.30;;;;;;5030057;28;20522;-87
2021/07/29 05:36:49;;;;;;;8.57;5.60;;;18.50;97.30;;;;;;5013789;28;20569;-88
2021/07/29 05:39:17;;;;;;;8.77;5.00;;;18.60;97.30;;;;;;5033355;28;20416;-88
2021/07/29 05:41:45;;;;;;;6.43;4.50;;;18.60;97.30;;;;;;5023811;28;20227;-88
2021/07/29 05:44:18;;;;;;;12.07;4.80;;;18.70;97.30;;;;;;5013687;28;20432;-88
2021/07/29 05:46:46;;;;;;;6.57;4.67;;;18.80;97.30;;;;;;5017610;28;20445;-88
2021/07/29 05:49:17;;;;;;;7.30;3.87;;;18.80;97.30;;;;;;5019374;28;20519;-88
2021/07/29 05:51:42;;;;;;;6.40;4.60;;;18.90;97.30;;;;;;5019752;28;20424;-87
2021/07/29 05:54:08;;;;;;;8.07;4.10;;;18.90;97.30;;;;;;5025787;28;20463;-89
2021/07/29 05:56:33;;;;;;;7.07;4.50;;;19.00;97.30;;;;;;5018799;28;20221;-87
2021/07/29 05:58:59;;;;;;;8.03;4.20;;;19.00;97.30;;;;;;5015042;28;20176;-88
2021/07/29 06:01:24;;;;;;;7.73;4.77;;;19.10;97.30;;;;;;5021180;28;20594;-88
2021/07/29 06:03:50;;;;;;;6.63;4.33;;;19.20;97.30;;;;;;5027802;28;20185;-87
2021/07/29 06:06:15;;;;;;;14.77;4.73;;;19.20;97.30;;;;;;5031125;28;20215;-87
2021/07/29 06:08:41;;;;;;;7.63;4.37;;;19.30;97.30;;;;;;5032783;28;20180;-87
2021/07/29 06:11:06;;;;;;;10.83;4.07;;;19.40;97.30;;;;;;5030447;28;20217;-87
2021/07/29 06:13:32;;;;;;;7.87;4.30;;;19.40;97.30;;;;;;5032977;28;20257;-88
2021/07/29 06:16:02;;;;;;;5.37;4.40;;;19.50;97.30;;;;;;5029366;28;20259;-88
2021/07/29 06:18:28;;;;;;;7.70;4.20;;;19.50;97.30;;;;;;5013226;28;20173;-88
2021/07/29 06:20:53;;;;;;;7.40;4.23;;;19.60;97.30;;;;;;5013519;28;20435;-88
2021/07/29 06:23:19;;;;;;;7.93;4.30;;;19.70;97.30;;;;;;5013463;28;20173;-87
2021/07/29 06:25:44;;;;;;;5.10;3.90;;;19.80;97.30;;;;;;5023398;28;20215;-88
2021/07/29 06:28:19;;;;;;;6.40;3.90;;;19.80;97.30;;;;;;5030225;28;20573;-87
2021/07/29 06:30:47;;;;;;;6.43;3.90;;;19.90;97.30;;;;;;5014699;28;20195;-88
2021/07/29 06:33:14;;;;;;;7.93;4.70;;;20.00;97.30;;;;;;5013896;28;20495;-88
2021/07/29 06:35:47;;;;;;;11.33;4.40;;;20.10;97.30;;;;;;5014400;28;20955;-87
2021/07/29 06:38:15;;;;;;;6.40;4.07;;;20.20;97.30;;;;;;5014046;28;20431;-88
2021/07/29 06:40:48;;;;;;;6.77;5.00;;;20.30;97.30;;;;;;5031917;28;20841;-87
2021/07/29 06:43:16;;;;;;;7.50;4.03;;;20.30;97.30;;;;;;5014311;28;20436;-87
2021/07/29 06:45:47;;;;;;;10.83;4.00;;;20.40;97.30;;;;;;5012480;28;20463;-87
2021/07/29 06:48:17;;;;;;;4.53;3.70;;;20.40;96.80;;;;;;5028095;28;20863;-86
2021/07/29 06:50:46;;;;;;;11.93;4.30;;;20.40;96.80;;;;;;5015173;28;20442;-89
2021/07/29 06:53:17;;;;;;;4.80;3.83;;;20.40;97.00;;;;;;5021401;28;20463;-87
2021/07/29 06:55:50;;;;;;;4.50;3.90;;;20.30;96.70;;;;;;5015859;28;20486;-88
2021/07/29 06:58:18;;;;;;;6.13;4.23;;;20.30;97.30;;;;;;5026555;28;20463;-88
2021/07/29 07:00:46;;;;;;;5.03;4.33;;;20.30;97.30;;;;;;5023702;28;20433;-88
2021/07/29 07:03:12;;;;;;;8.07;3.90;;;20.20;97.30;;;;;;5019133;28;20431;-87
2021/07/29 07:05:44;;;;;;;4.60;4.23;;;20.20;97.30;;;;;;5021647;28;20443;-87
2021/07/29 07:08:10;;;;;;;8.20;4.50;;;20.20;97.30;;;;;;5018042;28;20569;-87
2021/07/29 07:10:35;;;;;;;7.20;4.10;;;20.20;97.30;;;;;;5017634;28;20523;-86
2021/07/29 07:13:01;;;;;;;6.10;4.20;;;20.20;97.30;;;;;;5033977;23;20241;-82
2021/07/29 07:15:26;;;;;;;6.50;3.63;;;20.30;97.30;;;;;;4997884;28;20281;-84
2021/07/29 07:17:54;;;;;;;3.97;3.47;;;20.50;97.30;;;;;;5011829;28;20196;-82
2021/07/29 07:20:20;;;;;;;5.07;4.20;;;20.70;95.60;;;;;;5014734;28;20200;-84
2021/07/29 07:22:45;;;;;;;6.83;4.20;;;20.80;95.20;;;;;;5012968;28;20974;-83
2021/07/29 07:25:11;;;;;;;6.00;4.20;;;21.00;95.70;;;;;;5013776;28;20193;-82
2021/07/29 07:27:36;;;;;;;8.27;4.13;;;21.10;93.90;;;;;;5012086;28;20272;-82
2021/07/29 07:30:02;;;;;;;6.87;4.10;;;21.20;93.90;;;;;;5014237;28;20177;-84
2021/07/29 07:32:28;;;;;;;8.60;4.30;;;21.20;93.60;;;;;;5013938;28;20228;-84
2021/07/29 07:34:53;;;;;;;6.47;4.60;;;21.30;94.00;;;;;;5011947;28;20495;-83
2021/07/29 07:37:20;;;;;;;4.97;3.60;;;21.40;94.20;;;;;;5012104;28;20173;-83
2021/07/29 07:39:46;;;;;;;7.60;4.17;;;21.50;94.00;;;;;;5012724;28;20550;-82
2021/07/29 07:42:12;;;;;;;5.40;3.83;;;21.50;93.60;;;;;;5012740;28;20543;-83
2021/07/29 07:44:37;;;;;;;6.17;3.80;;;21.60;94.00;;;;;;5013886;28;20528;-83
2021/07/29 07:47:03;;;;;;;6.17;3.87;;;21.70;94.10;;;;;;5014240;28;20169;-83
2021/07/29 07:49:28;;;;;;;7.80;4.57;;;21.80;92.20;;;;;;5015032;28;20219;-82
2021/07/29 07:51:54;;;;;;;7.63;3.80;;;21.80;91.70;;;;;;5015638;28;20205;-85
2021/07/29 07:54:20;;;;;;;6.97;3.90;;;21.70;92.40;;;;;;5016736;28;20201;-84
2021/07/29 07:56:45;;;;;;;5.40;3.80;;;21.70;91.90;;;;;;5012960;28;20173;-82
2021/07/29 07:59:11;;;;;;;5.53;3.57;;;21.70;91.70;;;;;;5013138;28;20319;-81
2021/07/29 08:01:38;;;;;;;5.50;3.63;;;21.70;90.80;;;;;;5013593;28;20343;-82
2021/07/29 08:04:03;;;;;;;5.40;4.23;;;21.70;91.60;;;;;;5011934;28;20663;-83
2021/07/29 08:06:29;;;;;;;7.83;4.07;;;21.80;91.60;;;;;;5012618;28;20452;-83
2021/07/29 08:08:54;;;;;;;6.70;4.57;;;21.80;91.30;;;;;;5011607;28;20578;-85
2021/07/29 08:11:20;;;;;;;8.33;3.90;;;21.90;90.90;;;;;;5012260;28;20191;-83
2021/07/29 08:13:45;;;;;;;8.33;3.60;;;21.90;90.60;;;;;;5017557;28;20193;-83
2021/07/29 08:16:11;;;;;;;7.90;4.13;;;22.00;91.40;;;;;;5018899;28;20185;-83
2021/07/29 08:18:36;;;;;;;8.50;3.90;;;22.10;90.60;;;;;;5018423;28;20567;-84
2021/07/29 08:21:07;;;;;;;5.60;3.60;;;22.10;90.70;;;;;;5022678;28;20193;-84
2021/07/29 08:23:33;;;;;;;7.87;4.10;;;21.90;90.70;;;;;;5022613;28;20205;-84
2021/07/29 08:25:59;;;;;;;7.23;3.77;;;21.90;91.10;;;;;;5020757;28;20424;-84
2021/07/29 08:28:24;;;;;;;6.53;3.30;;;21.90;91.30;;;;;;5012522;28;20671;-85
2021/07/29 08:30:51;;;;;;;4.50;3.50;;;22.00;91.10;;;;;;5011811;28;20742;-84
2021/07/29 08:33:17;;;;;;;5.93;3.77;;;22.10;90.00;;;;;;5009711;28;20204;-85
2021/07/29 08:35:42;;;;;;;4.30;3.40;;;22.10;90.10;;;;;;5012217;28;20435;-85
2021/07/29 08:38:08;;;;;;;7.33;3.87;;;22.10;90.30;;;;;;5011412;28;20248;-84
2021/07/29 08:40:34;;;;;;;9.10;3.73;;;22.00;91.10;;;;;;5015408;28;20268;-84
2021/07/29 08:42:59;;;;;;;6.50;4.10;;;21.90;89.50;;;;;;5001310;28;20201;-84
2021/07/29 08:45:26;;;;;;;6.03;4.40;;;21.80;89.80;;;;;;4997059;28;20204;-85
2021/07/29 08:47:55;;;;;;;6.53;3.33;;;21.90;89.70;;;;;;5010692;28;20223;-85
2021/07/29 08:50:21;;;;;;;5.40;3.17;;;21.90;90.20;;;;;;5015259;28;20452;-85
2021/07/29 08:52:49;;;;;;;5.53;3.67;;;21.90;90.20;;;;;;5015621;28;20471;-84
2021/07/29 08:55:15;;;;;;;5.57;3.40;;;21.90;90.50;;;;;;5014318;28;20519;-85
2021/07/29 08:57:42;;;;;;;4.70;3.53;;;21.90;89.80;;;;;;5015834;28;20518;-83
2021/07/29 09:00:09;;;;;;;4.80;3.60;;;21.80;89.50;;;;;;5015997;28;20200;-84
2021/07/29 09:02:35;;;;;;;7.20;3.93;;;21.70;90.00;;;;;;5013300;28;20448;-84
2021/07/29 09:05:23;;;;;;;5.40;3.87;;;21.70;90.90;;;;;;5015224;28;20435;-84
2021/07/29 09:08:06;;;;;;;6.07;3.80;;;21.70;90.60;;;;;;5015065;28;20427;-84
2021/07/29 09:10:32;;;;;;;7.27;3.90;;;21.70;90.90;;;;;;5015376;28;20423;-84
2021/07/29 09:13:17;;;;;;;5.90;3.80;;;21.80;90.90;;;;;;5010558;28;21183;-84
2021/07/29 09:16:07;;;;;;;7.70;3.70;;;21.90;91.20;;;;;;5003826;28;20207;-84
2021/07/29 09:18:36;;;;;;;5.30;3.87;;;22.00;90.70;;;;;;5016139;28;20439;-84
2021/07/29 09:21:12;;;;;;;8.03;3.60;;;22.20;90.30;;;;;;5014348;28;20498;-81
2021/07/29 09:23:38;;;;;;;10.30;3.70;;;22.40;89.00;;;;;;5013878;28;20448;-83
2021/07/29 09:26:04;;;;;;;6.17;4.23;;;22.40;89.20;;;;;;5013461;28;20779;-83
2021/07/29 09:28:33;;;;;;;8.20;4.10;;;22.50;89.30;;;;;;5011849;28;20177;-84
2021/07/29 09:31:14;;;;;;;5.07;3.10;;;22.40;88.80;;;;;;5013116;28;20177;-83
2021/07/29 09:34:02;;;;;;;7.57;3.40;;;22.40;88.20;;;;;;5014654;28;20473;-83
2021/07/29 09:36:33;;;;;;;6.10;3.40;;;22.40;88.40;;;;;;5014329;28;20488;-83
2021/07/29 09:39:21;;;;;;;6.63;3.30;;;22.40;87.40;;;;;;5014067;28;21073;-85
2021/07/29 09:41:50;;;;;;;3.60;3.10;;;22.30;87.70;;;;;;5013740;28;20806;-82
2021/07/29 09:44:37;;;;;;;5.40;3.17;;;22.30;87.10;;;;;;5014387;28;20462;-84
2021/07/29 09:47:03;;;;;;;3.73;3.50;;;22.20;86.70;;;;;;5013844;28;20432;-83
2021/07/29 09:49:30;;;;;;;3.63;2.90;;;22.20;87.70;;;;;;5014129;28;20430;-84
2021/07/29 09:51:57;;;;;;;13.70;4.20;;;22.20;87.40;;;;;;5014601;28;20197;-86
2021/07/29 09:54:24;;;;;;;6.83;3.77;;;22.30;87.60;;;;;;5015793;28;20973;-83
2021/07/29 09:56:50;;;;;;;6.20;3.20;;;22.30;87.80;;;;;;5013644;28;20942;-83
2021/07/29 09:59:16;;;;;;;4.53;2.97;;;22.30;88.20;;;;;;5015579;28;20436;-84
2021/07/29 10:01:42;;;;;;;4.10;3.37;;;22.30;87.20;;;;;;5013721;28;20463;-84
2021/07/29 10:04:10;;;;;;;5.50;4.07;;;22.30;86.40;;;;;;5013352;28;20276;-84
2021/07/29 10:06:37;;;;;;;10.73;4.23;;;22.20;86.40;;;;;;5014725;28;20423;-83
2021/07/29 10:09:12;;;;;;;6.63;3.93;;;22.10;85.40;;;;;;5014149;28;20914;-85
2021/07/29 10:11:42;;;;;;;5.57;3.60;;;21.90;86.00;;;;;;4997594;28;20437;-84
2021/07/29 10:14:10;;;;;;;3.63;3.10;;;21.90;85.70;;;;;;5007557;28;20507;-84
2021/07/29 10:16:50;;;;;;;6.80;3.57;;;21.80;85.90;;;;;;5012628;28;20474;-84
2021/07/29 10:19:17;;;;;;;9.23;3.50;;;21.80;86.70;;;;;;5012215;28;20444;-84
2021/07/29 10:21:44;;;;;;;7.33;3.27;;;21.90;86.20;;;;;;5012444;28;20467;-86
2021/07/29 10:24:10;;;;;;;4.70;3.27;;;22.00;86.00;;;;;;5013781;28;20416;-83
2021/07/29 10:26:58;;;;;;;6.70;3.43;;;22.20;85.90;;;;;;5012414;28;20439;-81
2021/07/29 10:29:27;;;;;;;6.23;3.43;;;22.40;85.60;;;;;;5012136;28;20413;-84
2021/07/29 10:31:55;;;;;;;9.30;3.93;;;22.50;86.00;;;;;;5012887;28;20452;-83
2021/07/29 10:34:30;;;;;;;4.97;3.53;;;22.80;83.40;;;;;;5014519;28;20464;-84
2021/07/29 10:37:00;;;;;;;7.13;3.70;;;23.10;83.30;;;;;;5014259;28;20587;-84
2021/07/29 10:39:27;;;;;;;6.40;2.97;;;23.20;80.80;;;;;;5015662;28;20424;-83
2021/07/29 10:41:54;;;;;;;7.40;3.40;;;23.10;80.50;;;;;;5013644;28;20436;-83
2021/07/29 10:44:31;;;;;;;7.00;3.43;;;23.30;81.20;;;;;;5015862;28;20415;-85
2021/07/29 10:46:57;;;;;;;8.10;3.67;;;23.40;80.20;;;;;;5013898;28;20424;-84
2021/07/29 10:49:22;;;;;;;7.80;3.33;;;23.30;80.40;;;;;;5012755;28;20777;-83
2021/07/29 10:52:13;;;;;;;5.80;3.53;;;23.20;79.50;;;;;;5012297;28;20209;-83
2021/07/29 10:54:40;;;;;;;15.93;4.37;;;23.20;80.70;;;;;;5012871;28;20725;-83
2021/07/29 10:57:07;;;;;;;10.63;3.83;;;23.30;79.60;;;;;;5012736;28;20479;-82
2021/07/29 10:59:37;;;;;;;8.63;3.90;;;23.50;80.60;;;;;;5014975;28;20834;-83
2021/07/29 11:02:10;;;;;;;4.03;3.07;;;23.60;76.30;;;;;;5012802;28;20464;-82
2021/07/29 11:04:55;;;;;;;11.57;3.40;;;23.60;76.60;;;;;;5015359;28;20981;-83
2021/07/29 11:07:22;;;;;;;14.53;4.17;;;23.60;76.40;;;;;;5015059;28;20432;-83
2021/07/29 11:09:48;;;;;;;9.50;3.50;;;23.60;75.10;;;;;;5015542;28;20416;-82
2021/07/29 11:12:16;;;;;;;5.10;3.20;;;23.50;75.30;;;;;;5015037;28;20472;-83
2021/07/29 11:14:42;;;;;;;4.80;3.17;;;23.50;75.70;;;;;;5014213;28;20826;-82
2021/07/29 11:17:09;;;;;;;7.30;3.73;;;23.40;75.90;;;;;;5013259;28;20464;-85
2021/07/29 11:19:50;;;;;;;8.53;2.90;;;23.30;76.40;;;;;;5014104;28;20420;-84
2021/07/29 11:22:16;;;;;;;6.57;3.30;;;23.20;76.40;;;;;;5014603;28;20448;-84
2021/07/29 11:24:45;;;;;;;8.40;3.40;;;23.20;76.90;;;;;;5014263;28;20467;-84
2021/07/29 11:27:13;;;;;;;13.43;3.87;;;23.20;77.20;;;;;;5015246;28;20192;-84
2021/07/29 11:29:55;;;;;;;10.53;3.30;;;23.20;76.80;;;;;;5013756;28;20427;-85
2021/07/29 11:32:21;;;;;;;12.33;3.03;;;23.20;77.70;;;;;;5015465;28;20436;-84
2021/07/29 11:34:55;;;;;;;8.00;3.80;;;23.40;77.40;;;;;;5005392;28;20474;-85
2021/07/29 11:37:21;;;;;;;5.67;3.40;;;23.80;79.20;;;;;;5014475;28;20415;-83
2021/07/29 11:39:47;;;;;;;6.53;3.03;;;24.20;78.10;;;;;;5013047;28;20735;-83
2021/07/29 11:42:12;;;;;;;4.67;3.07;;;24.30;76.20;;;;;;5011326;28;20197;-83
2021/07/29 11:44:45;;;;;;;3.60;2.90;;;24.20;76.00;;;;;;5012758;28;20631;-85
2021/07/29 11:47:11;;;;;;;7.40;3.30;;;24.10;76.20;;;;;;5012851;28;20177;-84
2021/07/29 11:49:50;;;;;;;4.73;3.03;;;24.30;77.10;;;;;;5012695;28;20502;-84
2021/07/29 11:52:18;;;;;;;7.70;3.43;;;24.50;75.00;;;;;;5014339;28;20209;-84
2021/07/29 11:54:43;;;;;;;3.47;2.70;;;24.60;74.80;;;;;;5011750;28;20467;-84
2021/07/29 11:57:09;;;;;;;6.70;3.37;;;24.60;74.70;;;;;;5013450;28;20436;-84
2021/07/29 11:59:39;;;;;;;5.47;3.10;;;24.30;75.70;;;;;;5014423;28;20175;-82
2021/07/29 12:02:07;;;;;;;6.53;3.10;;;24.00;75.50;;;;;;5011893;28;20455;-84
2021/07/29 12:04:38;;;;;;;4.37;3.00;;;23.90;76.60;;;;;;5013027;28;20941;-84
2021/07/29 12:07:05;;;;;;;3.90;2.87;;;24.20;75.90;;;;;;5013628;28;20436;-84
2021/07/29 12:09:34;;;;;;;4.10;2.63;;;24.40;76.40;;;;;;5012645;28;20436;-84
2021/07/29 12:12:01;;;;;;;3.57;3.00;;;24.70;75.30;;;;;;5010629;28;20472;-84
2021/07/29 12:14:28;;;;;;;5.60;3.43;;;25.00;76.60;;;;;;5014389;28;20464;-83
2021/07/29 12:16:54;;;;;;;5.00;3.20;;;25.20;74.70;;;;;;5016022;28;20428;-84
2021/07/29 12:19:21;;;;;;;8.60;3.67;;;25.20;73.90;;;;;;5016143;28;20428;-83
2021/07/29 12:21:48;;;;;;;3.83;2.60;;;25.10;75.50;;;;;;5018283;28;20444;-83
2021/07/29 12:24:14;;;;;;;8.53;3.13;;;25.30;73.70;;;;;;5017168;28;20914;-83
2021/07/29 12:26:41;;;;;;;3.43;2.70;;;25.40;74.30;;;;;;5017820;28;20936;-85
2021/07/29 12:29:07;;;;;;;4.40;3.00;;;25.60;72.80;;;;;;5017817;28;20491;-83
2021/07/29 12:31:33;;;;;;;4.17;3.10;;;25.60;71.50;;;;;;5017541;28;20970;-83
2021/07/29 12:34:04;;;;;;;5.30;2.63;;;25.60;71.50;;;;;;5017259;28;20259;-84
2021/07/29 12:36:42;;;;;;;3.40;2.53;;;25.70;72.00;;;;;;5017716;28;20420;-84
2021/07/29 12:39:08;;;;;;;4.40;3.20;;;25.60;71.40;;;;;;5020460;28;20408;-83
2021/07/29 12:41:36;;;;;;;5.63;2.60;;;25.70;72.50;;;;;;5019946;28;20420;-85
2021/07/29 12:44:13;;;;;;;5.43;3.40;;;25.80;71.70;;;;;;5017967;28;20521;-84
2021/07/29 12:46:40;;;;;;;3.67;2.57;;;25.90;73.00;;;;;;5018331;28;20430;-84